createdAt,value
2022-08-05T00:01:30.453Z,4.47
2022-08-05T00:06:39.414Z,3.20
2022-08-05T00:11:49.029Z,3.63
2022-08-05T00:16:53.952Z,4.32
2022-08-05T00:21:56.763Z,4.28
2022-08-05T00:27:00.927Z,3.73
2022-08-05T00:32:10.471Z,3.55
2022-08-05T00:37:16.293Z,4.10
2022-08-05T00:42:36.839Z,3.88
2022-08-05T00:47:56.495Z,3.47
2022-08-05T00:53:01.617Z,3.53
2022-08-05T00:58:04.711Z,3.53
2022-08-05T01:03:08.274Z,3.60
2022-08-05T01:13:59.010Z,3.90
2022-08-05T01:19:19.902Z,3.88
2022-08-05T01:24:45.677Z,4.43
2022-08-05T01:29:51.835Z,3.33
2022-08-05T01:35:10.499Z,3.63
2022-08-05T01:40:18.039Z,4.10
2022-08-05T01:45:43.059Z,4.45
2022-08-05T01:50:51.005Z,4.07
2022-08-05T01:58:18.881Z,3.45
2022-08-05T02:01:39.926Z,3.58
2022-08-05T02:06:45.039Z,3.50
2022-08-05T02:12:05.241Z,3.42
2022-08-05T02:17:16.839Z,3.50
2022-08-05T02:22:48.900Z,3.45
2022-08-05T02:27:59.398Z,3.83
2022-08-05T02:33:03.258Z,3.47
2022-08-05T02:38:09.351Z,3.80
2022-08-05T02:43:13.693Z,3.60
2022-08-05T02:48:19.525Z,4.13
2022-08-05T02:53:39.345Z,3.20
2022-08-05T02:58:43.863Z,3.33
2022-08-05T03:04:02.143Z,3.55
2022-08-05T03:09:07.742Z,3.65
2022-08-05T03:14:13.552Z,3.80
2022-08-05T03:19:33.111Z,4.03
2022-08-05T03:24:38.724Z,3.08
2022-08-05T03:30:08.099Z,3.28
2022-08-05T03:35:13.033Z,3.70
2022-08-05T03:40:31.190Z,4.00
2022-08-05T03:45:58.383Z,4.00
2022-08-05T03:52:35.347Z,3.75
2022-08-05T03:56:37.258Z,3.90
2022-08-05T04:01:47.913Z,4.13
2022-08-05T04:06:51.855Z,3.60
2022-08-05T04:11:58.153Z,3.25
2022-08-05T04:17:02.977Z,3.53
2022-08-05T04:22:11.489Z,3.63
2022-08-05T04:27:15.292Z,3.70
2022-08-05T04:32:28.076Z,3.45
2022-08-05T04:38:02.680Z,3.78
2022-08-05T04:43:16.517Z,3.35
2022-08-05T04:48:27.481Z,3.45
2022-08-05T04:53:33.678Z,3.97
2022-08-05T04:58:37.971Z,3.28
2022-08-05T05:03:41.776Z,3.70
2022-08-05T05:08:45.058Z,4.05
2022-08-05T05:13:52.592Z,4.18
2022-08-05T05:19:18.556Z,3.92
2022-08-05T05:24:21.755Z,3.45
2022-08-05T05:29:24.381Z,4.60
2022-08-05T05:34:46.899Z,3.67
2022-08-05T05:39:49.507Z,4.00
2022-08-05T05:44:52.056Z,3.88
2022-08-05T05:50:02.397Z,4.47
2022-08-05T05:55:13.322Z,3.80
2022-08-05T06:00:19.996Z,3.60
2022-08-05T06:05:22.768Z,5.57
2022-08-05T06:10:36.442Z,4.00
2022-08-05T06:16:29.446Z,4.55
2022-08-05T06:21:03.885Z,3.95
2022-08-05T06:26:20.775Z,3.40
2022-08-05T06:31:32.098Z,3.58
2022-08-05T06:36:53.482Z,3.17
2022-08-05T06:41:59.081Z,3.10
2022-08-05T06:47:02.427Z,2.72
2022-08-05T06:52:05.888Z,3.08
2022-08-05T06:58:03.577Z,2.95
2022-08-05T07:02:32.108Z,2.90
2022-08-05T07:07:43.787Z,3.15
2022-08-05T07:13:05.075Z,2.90
2022-08-05T07:18:09.841Z,2.47
2022-08-05T07:23:26.257Z,2.78
2022-08-05T07:28:32.025Z,2.58
2022-08-05T07:33:36.919Z,2.20
2022-08-05T07:38:43.645Z,2.65
2022-08-05T07:43:47.930Z,2.58
2022-08-05T07:49:03.591Z,2.57
2022-08-05T07:54:09.743Z,2.17
2022-08-05T07:59:14.472Z,2.20
2022-08-05T08:04:17.392Z,2.30
2022-08-05T08:09:37.449Z,1.83
2022-08-05T08:14:40.992Z,1.80
2022-08-05T08:20:10.395Z,1.42
2022-08-05T08:25:16.396Z,2.00
2022-08-05T08:30:32.374Z,1.70
2022-08-05T08:35:40.878Z,1.40
2022-08-05T08:40:50.460Z,1.42
2022-08-05T08:45:55.372Z,1.55
2022-08-05T08:51:22.276Z,1.20
2022-08-05T08:56:23.643Z,1.30
2022-08-05T09:01:29.817Z,1.30
2022-08-05T09:06:33.237Z,1.80
2022-08-05T09:11:50.770Z,1.20
2022-08-05T09:16:56.752Z,1.25
2022-08-05T09:22:23.267Z,1.35
2022-08-05T09:28:04.449Z,1.40
2022-08-05T09:33:02.305Z,1.15
2022-08-05T09:38:13.761Z,1.65
2022-08-05T09:43:40.223Z,1.42
2022-08-05T09:49:07.264Z,1.30
2022-08-05T09:54:09.608Z,1.00
2022-08-05T09:59:17.132Z,1.63
2022-08-05T10:04:29.177Z,1.40
2022-08-05T10:09:45.433Z,1.20
2022-08-05T10:14:48.581Z,1.42
2022-08-05T10:20:03.550Z,1.30
2022-08-05T10:25:14.470Z,1.02
2022-08-05T10:32:46.896Z,1.35
2022-08-05T10:36:05.664Z,1.10
2022-08-05T10:41:13.921Z,1.10
2022-08-05T10:46:24.006Z,1.13
2022-08-05T10:51:29.723Z,1.20
2022-08-05T10:56:52.728Z,1.27
2022-08-05T11:02:14.272Z,1.17
2022-08-05T11:08:02.999Z,1.05
2022-08-05T11:13:01.057Z,0.82
2022-08-05T11:18:30.251Z,1.05
2022-08-05T11:24:05.689Z,0.93
2022-08-05T11:29:40.819Z,1.10
2022-08-05T11:34:51.102Z,1.40
2022-08-05T11:39:55.512Z,1.50
2022-08-05T11:45:14.323Z,1.40
2022-08-05T11:50:26.370Z,1.00
2022-08-05T11:55:32.326Z,1.02
2022-08-05T12:00:41.570Z,1.67
2022-08-05T12:05:46.921Z,1.15
2022-08-05T12:10:52.538Z,1.42
2022-08-05T12:15:58.052Z,1.00
2022-08-05T12:21:10.765Z,0.80
2022-08-05T12:26:14.834Z,1.00
2022-08-05T12:31:23.764Z,0.90
2022-08-05T12:36:37.946Z,1.00
2022-08-05T12:41:43.806Z,1.02
2022-08-05T12:46:54.476Z,0.98
2022-08-05T12:52:13.788Z,0.98
2022-08-05T12:57:23.395Z,0.93
2022-08-05T13:02:27.342Z,1.10
2022-08-05T13:07:59.325Z,1.30
2022-08-05T13:12:58.763Z,1.08
2022-08-05T13:18:01.514Z,1.30
2022-08-05T13:23:07.212Z,1.27
2022-08-05T13:28:10.649Z,1.20
2022-08-05T13:34:20.147Z,1.10
2022-08-05T13:38:42.076Z,1.40
2022-08-05T13:43:54.932Z,1.20
2022-08-05T13:49:00.726Z,0.93
2022-08-05T13:54:11.769Z,1.30
2022-08-05T13:59:19.731Z,1.15
2022-08-05T14:04:43.473Z,1.20
2022-08-05T14:09:53.009Z,1.38
2022-08-05T14:14:56.045Z,1.42
2022-08-05T14:20:04.545Z,1.40
2022-08-05T14:25:21.649Z,1.45
2022-08-05T14:30:26.615Z,1.10
2022-08-05T14:35:37.063Z,1.13
2022-08-05T14:40:53.228Z,1.30
2022-08-05T14:45:55.896Z,1.55
2022-08-05T14:50:58.696Z,1.55
2022-08-05T14:56:03.832Z,1.40
2022-08-05T15:01:16.054Z,1.00
2022-08-05T15:06:20.383Z,1.17
2022-08-05T15:11:52.706Z,1.50
2022-08-05T15:16:56.276Z,1.30
2022-08-05T15:27:04.243Z,1.48
2022-08-05T15:32:11.765Z,1.23
2022-08-05T15:37:17.233Z,1.30
2022-08-05T15:42:53.923Z,1.35
2022-08-05T15:47:47.118Z,1.60
2022-08-05T15:52:53.265Z,1.42
2022-08-05T15:57:58.463Z,1.52
2022-08-05T16:03:20.691Z,1.20
2022-08-05T16:08:24.034Z,1.15
2022-08-05T16:13:34.701Z,1.10
2022-08-05T16:18:51.675Z,1.65
2022-08-05T16:23:57.200Z,1.17
2022-08-05T16:29:01.735Z,1.30
2022-08-05T16:34:05.692Z,1.70
2022-08-05T16:39:12.368Z,5.03
2022-08-05T16:44:17.178Z,2.38
2022-08-05T16:49:19.861Z,4.40
2022-08-05T16:54:28.967Z,1.83
2022-08-05T16:59:34.601Z,1.73
2022-08-05T17:04:57.395Z,2.00
2022-08-05T17:10:00.068Z,2.00
2022-08-05T17:15:07.339Z,1.60
2022-08-05T17:20:14.558Z,1.48
2022-08-05T17:25:33.519Z,1.40
2022-08-05T17:30:50.277Z,1.98
2022-08-05T17:36:07.632Z,1.50
2022-08-05T17:42:16.713Z,1.20
2022-08-05T17:46:38.481Z,1.67
2022-08-05T17:51:41.105Z,1.55
2022-08-05T17:56:44.732Z,1.33
2022-08-05T18:01:51.681Z,1.70
2022-08-05T18:06:54.568Z,1.58
2022-08-05T18:12:03.490Z,1.92
2022-08-05T18:17:06.851Z,1.65
2022-08-05T18:22:46.086Z,1.83
2022-08-05T18:27:52.885Z,1.75
2022-08-05T18:33:00.285Z,2.10
2022-08-05T18:38:04.129Z,1.85
2022-08-05T18:43:09.183Z,1.70
2022-08-05T18:48:31.108Z,1.90
2022-08-05T18:53:42.947Z,1.75
2022-08-05T18:58:48.406Z,2.20
2022-08-05T19:03:56.638Z,2.00
2022-08-05T19:09:01.899Z,2.20
2022-08-05T19:14:37.443Z,1.83
2022-08-05T19:19:29.384Z,2.20
2022-08-05T19:34:40.422Z,1.80
2022-08-05T19:39:45.677Z,1.80
2022-08-05T19:44:54.070Z,2.08
2022-08-05T19:50:00.930Z,1.90
2022-08-05T19:55:07.169Z,2.25
2022-08-05T20:00:28.286Z,1.92
2022-08-05T20:05:50.408Z,2.83
2022-08-05T20:10:54.066Z,2.08
2022-08-05T20:15:58.115Z,2.22
2022-08-05T20:21:04.614Z,1.90
2022-08-05T20:26:07.914Z,1.90
2022-08-05T20:31:21.423Z,2.00
2022-08-05T20:36:26.390Z,2.08
2022-08-05T20:41:44.254Z,2.27
2022-08-05T20:46:48.137Z,1.95
2022-08-05T20:51:53.708Z,2.40
2022-08-05T20:56:57.473Z,2.15
2022-08-05T21:02:00.421Z,2.00
2022-08-05T21:07:05.692Z,2.22
2022-08-05T21:12:13.014Z,2.30
2022-08-05T21:17:19.646Z,2.33
2022-08-05T21:27:28.180Z,2.37
2022-08-05T21:32:41.680Z,2.40
2022-08-05T21:37:53.058Z,2.30
2022-08-05T21:42:59.026Z,2.60
2022-08-05T21:48:02.520Z,2.85
2022-08-05T21:53:17.422Z,2.83
2022-08-05T21:58:20.644Z,3.13
2022-08-05T22:03:51.710Z,2.75
2022-08-05T22:08:55.538Z,2.58
2022-08-05T22:14:31.390Z,2.90
2022-08-05T22:20:02.181Z,3.63
2022-08-05T22:25:03.336Z,2.60
2022-08-05T22:30:06.407Z,2.60
2022-08-05T22:35:11.310Z,2.70
2022-08-05T22:40:16.676Z,2.90
2022-08-05T22:45:22.998Z,2.55
2022-08-05T22:50:27.752Z,2.88
2022-08-05T22:55:56.655Z,3.05
2022-08-05T23:00:53.371Z,3.45
2022-08-05T23:05:59.843Z,2.85
2022-08-05T23:11:03.717Z,3.05
2022-08-05T23:16:06.369Z,3.05
2022-08-05T23:21:10.270Z,3.00
2022-08-05T23:26:13.509Z,2.97
2022-08-05T23:31:18.067Z,3.72
2022-08-05T23:36:20.944Z,3.33
2022-08-05T23:41:34.179Z,3.67
2022-08-05T23:46:39.888Z,3.60
2022-08-05T23:52:02.314Z,3.35
2022-08-05T23:57:07.149Z,2.80
